createdAt,value
2022-09-06T00:01:00.920Z,101362.00
2022-09-06T00:03:28.425Z,101376.00
2022-09-06T00:05:55.737Z,101388.00
2022-09-06T00:08:22.933Z,101386.00
2022-09-06T00:11:01.065Z,101391.00
2022-09-06T00:13:29.078Z,101384.00
2022-09-06T00:15:56.545Z,101368.00
2022-09-06T00:18:24.040Z,101357.00
2022-09-06T00:20:51.144Z,101352.00
2022-09-06T00:23:18.223Z,101357.00
2022-09-06T00:25:45.301Z,101343.00
2022-09-06T00:28:12.507Z,101358.00
2022-09-06T00:30:39.591Z,101390.00
2022-09-06T00:33:06.870Z,101408.00
2022-09-06T00:35:34.351Z,101401.00
2022-09-06T00:38:02.500Z,101376.00
2022-09-06T00:40:35.305Z,101380.00
2022-09-06T00:43:02.476Z,101422.00
2022-09-06T00:45:31.495Z,101434.00
2022-09-06T00:48:01.378Z,101392.00
2022-09-06T00:50:29.787Z,101445.00
2022-09-06T00:52:57.210Z,101439.00
2022-09-06T00:55:26.349Z,101427.00
2022-09-06T00:57:54.211Z,101429.00
2022-09-06T01:00:21.716Z,101426.00
2022-09-06T01:02:49.697Z,101418.00
2022-09-06T01:05:17.839Z,101411.00
2022-09-06T01:08:46.241Z,101402.00
2022-09-06T01:12:05.660Z,101402.00
2022-09-06T01:15:21.843Z,101394.00
2022-09-06T01:18:03.834Z,101391.00
2022-09-06T01:21:08.512Z,101386.00
2022-09-06T01:24:12.617Z,101386.00
2022-09-06T01:27:09.029Z,101392.00
2022-09-06T01:30:06.082Z,101390.00
2022-09-06T01:33:00.117Z,101376.00
2022-09-06T01:35:46.630Z,101364.00
2022-09-06T01:38:14.945Z,101364.00
2022-09-06T01:40:41.987Z,101360.00
2022-09-06T01:43:16.357Z,101344.00
2022-09-06T01:46:10.412Z,101344.00
2022-09-06T01:49:04.587Z,101335.00
2022-09-06T01:51:56.804Z,101324.00
2022-09-06T01:55:28.208Z,101306.00
2022-09-06T01:58:22.263Z,101291.00
2022-09-06T02:01:12.198Z,101289.00
2022-09-06T02:04:14.100Z,101289.00
2022-09-06T02:06:54.851Z,101297.00
2022-09-06T02:09:26.263Z,101303.00
2022-09-06T02:12:01.019Z,101299.00
2022-09-06T02:14:39.587Z,101302.00
2022-09-06T02:17:12.666Z,101282.00
2022-09-06T02:19:54.061Z,101295.00
2022-09-06T02:22:27.414Z,101296.00
2022-09-06T02:24:58.451Z,101291.00
2022-09-06T02:27:25.899Z,101289.00
2022-09-06T02:29:53.232Z,101291.00
2022-09-06T02:32:26.594Z,101278.00
2022-09-06T02:34:57.294Z,101290.00
2022-09-06T02:37:28.401Z,101288.00
2022-09-06T02:39:56.211Z,101285.00
2022-09-06T02:42:24.839Z,101279.00
2022-09-06T02:44:52.010Z,101276.00
2022-09-06T02:47:19.090Z,101273.00
2022-09-06T02:49:46.404Z,101264.00
2022-09-06T02:52:13.546Z,101265.00
2022-09-06T02:54:40.741Z,101266.00
2022-09-06T02:57:07.992Z,101258.00
2022-09-06T02:59:35.128Z,101248.00
2022-09-06T03:02:02.401Z,101240.00
2022-09-06T03:04:29.573Z,101256.00
2022-09-06T03:06:57.367Z,101255.00
2022-09-06T03:09:25.340Z,101251.00
2022-09-06T03:11:52.663Z,101244.00
2022-09-06T03:14:20.145Z,101242.00
2022-09-06T03:16:47.480Z,101240.00
2022-09-06T03:19:14.644Z,101242.00
2022-09-06T03:21:41.764Z,101237.00
2022-09-06T03:24:08.852Z,101225.00
2022-09-06T03:26:35.985Z,101239.00
2022-09-06T03:29:03.182Z,101235.00
2022-09-06T03:31:30.514Z,101230.00
2022-09-06T03:33:57.697Z,101231.00
2022-09-06T03:36:24.948Z,101223.00
2022-09-06T03:38:54.154Z,101217.00
2022-09-06T03:41:21.301Z,101207.00
2022-09-06T03:43:48.401Z,101205.00
2022-09-06T03:46:15.531Z,101211.00
2022-09-06T03:48:42.777Z,101213.00
2022-09-06T03:51:09.917Z,101221.00
2022-09-06T03:53:37.126Z,101226.00
2022-09-06T03:56:04.349Z,101227.00
2022-09-06T03:58:33.450Z,101221.00
2022-09-06T04:01:10.098Z,101213.00
2022-09-06T04:03:38.454Z,101209.00
2022-09-06T04:06:07.107Z,101215.00
2022-09-06T04:08:36.026Z,101217.00
2022-09-06T04:11:03.139Z,101225.00
2022-09-06T04:13:31.927Z,101212.00
2022-09-06T04:15:59.972Z,101213.00
2022-09-06T04:18:27.785Z,101212.00
2022-09-06T04:20:56.938Z,101210.00
2022-09-06T04:23:26.925Z,101222.00
2022-09-06T04:25:57.156Z,101224.00
2022-09-06T04:28:26.787Z,101233.00
2022-09-06T04:31:05.202Z,101235.00
2022-09-06T04:33:35.220Z,101237.00
2022-09-06T04:36:07.003Z,101234.00
2022-09-06T04:38:43.439Z,101242.00
2022-09-06T04:41:13.686Z,101240.00
2022-09-06T04:43:40.827Z,101231.00
2022-09-06T04:46:25.267Z,101223.00
2022-09-06T04:48:54.744Z,101222.00
2022-09-06T04:51:23.572Z,101235.00
2022-09-06T04:53:51.818Z,101233.00
2022-09-06T04:56:22.366Z,101242.00
2022-09-06T04:58:51.126Z,101235.00
2022-09-06T05:01:18.810Z,101242.00
2022-09-06T05:03:46.787Z,101239.00
2022-09-06T05:06:25.232Z,101245.00
2022-09-06T05:08:52.607Z,101257.00
2022-09-06T05:11:23.874Z,101259.00
2022-09-06T05:13:51.327Z,101256.00
2022-09-06T05:16:18.937Z,101262.00
2022-09-06T05:18:46.308Z,101256.00
2022-09-06T05:21:13.478Z,101262.00
2022-09-06T05:23:43.341Z,101263.00
2022-09-06T05:26:10.750Z,101265.00
2022-09-06T05:28:38.346Z,101252.00
2022-09-06T05:31:27.638Z,101251.00
2022-09-06T05:33:56.368Z,101258.00
2022-09-06T05:36:24.360Z,101249.00
2022-09-06T05:38:53.020Z,101252.00
2022-09-06T05:41:20.940Z,101251.00
2022-09-06T05:43:48.613Z,101255.00
2022-09-06T05:46:17.353Z,101259.00
2022-09-06T05:48:44.688Z,101274.00
2022-09-06T05:51:13.660Z,101263.00
2022-09-06T05:53:44.539Z,101264.00
2022-09-06T05:56:14.967Z,101262.00
2022-09-06T05:58:42.685Z,101252.00
2022-09-06T06:01:20.141Z,101251.00
2022-09-06T06:03:57.468Z,101243.00
2022-09-06T06:06:27.599Z,101239.00
2022-09-06T06:08:55.401Z,101251.00
2022-09-06T06:11:23.719Z,101249.00
2022-09-06T06:13:51.152Z,101256.00
2022-09-06T06:16:22.622Z,101262.00
2022-09-06T06:18:52.473Z,101246.00
2022-09-06T06:21:29.580Z,101246.00
2022-09-06T06:24:04.070Z,101249.00
2022-09-06T06:26:34.742Z,101250.00
2022-09-06T06:29:02.907Z,101247.00
2022-09-06T06:31:32.639Z,101252.00
2022-09-06T06:34:00.125Z,101251.00
2022-09-06T06:36:30.903Z,101250.00
2022-09-06T06:38:59.530Z,101240.00
2022-09-06T06:41:30.406Z,101243.00
2022-09-06T06:44:01.450Z,101241.00
2022-09-06T06:46:32.697Z,101233.00
2022-09-06T06:49:00.278Z,101237.00
2022-09-06T06:51:31.973Z,101235.00
2022-09-06T06:54:02.208Z,101230.00
2022-09-06T06:56:33.194Z,101231.00
2022-09-06T06:59:04.393Z,101238.00
2022-09-06T07:01:33.883Z,101232.00
2022-09-06T07:04:01.670Z,101227.00
2022-09-06T07:09:19.329Z,101225.00
2022-09-06T07:11:49.197Z,101225.00
2022-09-06T07:14:19.051Z,101237.00
2022-09-06T07:16:46.807Z,101230.00
2022-09-06T07:22:04.590Z,101234.00
2022-09-06T07:24:33.293Z,101226.00
2022-09-06T07:29:48.082Z,101229.00
2022-09-06T07:32:15.389Z,101224.00
2022-09-06T07:34:42.641Z,101226.00
2022-09-06T07:37:09.978Z,101219.00
2022-09-06T07:39:37.627Z,101235.00
2022-09-06T07:42:05.418Z,101242.00
2022-09-06T07:44:32.878Z,101234.00
2022-09-06T07:55:26.252Z,101228.00
2022-09-06T07:57:53.689Z,101216.00
2022-09-06T08:00:21.364Z,101213.00
2022-09-06T08:02:48.708Z,101224.00
2022-09-06T08:10:51.783Z,101223.00
2022-09-06T08:13:19.064Z,101222.00
2022-09-06T08:15:46.285Z,101215.00
2022-09-06T08:18:13.600Z,101209.00
2022-09-06T08:20:40.931Z,101221.00
2022-09-06T08:23:11.513Z,101223.00
2022-09-06T08:25:38.954Z,101206.00
2022-09-06T08:28:06.220Z,101219.00
2022-09-06T08:30:37.130Z,101211.00
2022-09-06T08:33:04.564Z,101203.00
2022-09-06T08:35:32.026Z,101207.00
2022-09-06T08:37:59.294Z,101211.00
2022-09-06T08:40:26.765Z,101216.00
2022-09-06T08:42:54.021Z,101210.00
2022-09-06T08:45:23.391Z,101216.00
2022-09-06T08:47:52.874Z,101215.00
2022-09-06T08:50:21.001Z,101212.00
2022-09-06T08:53:16.832Z,101207.00
2022-09-06T08:56:11.161Z,101209.00
2022-09-06T08:59:13.619Z,101207.00
2022-09-06T09:02:08.629Z,101208.00
2022-09-06T09:04:42.735Z,101204.00
2022-09-06T09:07:59.160Z,101205.00
2022-09-06T09:10:39.767Z,101208.00
2022-09-06T09:13:15.727Z,101205.00
2022-09-06T09:15:43.270Z,101192.00
2022-09-06T09:18:10.960Z,101189.00
2022-09-06T09:20:39.471Z,101185.00
2022-09-06T09:23:06.807Z,101184.00
2022-09-06T09:25:36.413Z,101179.00
2022-09-06T09:28:03.816Z,101179.00
2022-09-06T09:30:49.603Z,101192.00
2022-09-06T09:33:39.292Z,101188.00
2022-09-06T09:36:13.207Z,101183.00
2022-09-06T09:38:53.106Z,101178.00
2022-09-06T09:41:36.324Z,101174.00
2022-09-06T09:44:16.439Z,101170.00
2022-09-06T09:46:43.981Z,101165.00
2022-09-06T09:49:22.062Z,101160.00
2022-09-06T09:52:13.658Z,101174.00
2022-09-06T09:54:47.057Z,101170.00
2022-09-06T09:57:19.474Z,101168.00
2022-09-06T09:59:58.941Z,101168.00
2022-09-06T10:02:39.366Z,101180.00
2022-09-06T10:05:21.453Z,101175.00
2022-09-06T10:07:55.893Z,101171.00
2022-09-06T10:10:26.923Z,101164.00
2022-09-06T10:13:34.367Z,101166.00
2022-09-06T10:16:03.613Z,101168.00
2022-09-06T10:18:33.499Z,101163.00
2022-09-06T10:21:12.691Z,101166.00
2022-09-06T10:27:00.147Z,101168.00
2022-09-06T10:30:09.648Z,101174.00
2022-09-06T10:32:53.810Z,101170.00
2022-09-06T10:35:25.199Z,101163.00
2022-09-06T10:38:36.287Z,101168.00
2022-09-06T10:41:12.404Z,101165.00
2022-09-06T10:44:11.588Z,101172.00
2022-09-06T10:46:44.441Z,101171.00
2022-09-06T10:49:19.203Z,101175.00
2022-09-06T10:51:58.227Z,101174.00
2022-09-06T10:54:28.224Z,101173.00
2022-09-06T11:00:14.512Z,101177.00
2022-09-06T11:05:58.418Z,101166.00
2022-09-06T11:08:46.390Z,101163.00
2022-09-06T11:11:44.041Z,101163.00
2022-09-06T11:14:15.759Z,101161.00
2022-09-06T11:17:05.090Z,101164.00
2022-09-06T11:19:55.206Z,101171.00
2022-09-06T11:22:53.194Z,101170.00
2022-09-06T11:25:57.913Z,101172.00
2022-09-06T11:28:44.915Z,101173.00
2022-09-06T11:34:24.441Z,101172.00
2022-09-06T11:37:08.741Z,101165.00
2022-09-06T11:42:44.243Z,101174.00
2022-09-06T11:45:11.341Z,101169.00
2022-09-06T11:47:53.343Z,101177.00
2022-09-06T11:50:28.170Z,101179.00
2022-09-06T11:53:21.447Z,101164.00
2022-09-06T11:56:00.548Z,101180.00
2022-09-06T11:58:43.595Z,101172.00
2022-09-06T12:01:13.767Z,101175.00
2022-09-06T12:07:03.745Z,101162.00
2022-09-06T12:09:34.353Z,101164.00
2022-09-06T12:12:03.663Z,101164.00
2022-09-06T12:14:37.279Z,101164.00
2022-09-06T12:17:19.229Z,101161.00
2022-09-06T12:20:11.438Z,101164.00
2022-09-06T12:22:41.175Z,101162.00
2022-09-06T12:25:37.408Z,101156.00
2022-09-06T12:28:12.352Z,101151.00
2022-09-06T12:30:45.650Z,101152.00
2022-09-06T12:33:37.007Z,101148.00
2022-09-06T12:36:29.897Z,101150.00
2022-09-06T12:39:12.330Z,101153.00
2022-09-06T12:41:48.915Z,101142.00
2022-09-06T12:44:18.321Z,101138.00
2022-09-06T12:46:51.751Z,101132.00
2022-09-06T12:49:23.560Z,101129.00
2022-09-06T12:51:51.181Z,101130.00
2022-09-06T12:54:28.988Z,101134.00
2022-09-06T12:57:19.678Z,101146.00
2022-09-06T12:59:58.138Z,101141.00
2022-09-06T13:03:12.335Z,101139.00
2022-09-06T13:05:43.167Z,101135.00
2022-09-06T13:08:24.966Z,101139.00
2022-09-06T13:10:53.448Z,101123.00
2022-09-06T13:13:24.991Z,101128.00
2022-09-06T13:15:53.139Z,101123.00
2022-09-06T13:18:39.843Z,101124.00
2022-09-06T13:21:19.435Z,101119.00
2022-09-06T13:23:51.064Z,101120.00
2022-09-06T13:26:40.085Z,101120.00
2022-09-06T13:29:22.030Z,101118.00
2022-09-06T13:31:55.695Z,101112.00
2022-09-06T13:34:30.851Z,101101.00
2022-09-06T13:37:12.982Z,101108.00
2022-09-06T13:39:46.730Z,101094.00
2022-09-06T13:42:36.803Z,101093.00
2022-09-06T13:45:29.113Z,101096.00
2022-09-06T13:48:07.911Z,101087.00
2022-09-06T13:50:43.972Z,101092.00
2022-09-06T13:53:11.284Z,101073.00
2022-09-06T13:55:40.528Z,101077.00
2022-09-06T13:58:10.804Z,101077.00
2022-09-06T14:00:41.313Z,101074.00
2022-09-06T14:03:19.540Z,101073.00
2022-09-06T14:05:46.941Z,101073.00
2022-09-06T14:08:14.208Z,101071.00
2022-09-06T14:10:41.740Z,101064.00
2022-09-06T14:13:10.522Z,101063.00
2022-09-06T14:15:38.631Z,101064.00
2022-09-06T14:18:08.150Z,101068.00
2022-09-06T14:20:37.848Z,101073.00
2022-09-06T14:23:05.378Z,101074.00
2022-09-06T14:25:37.068Z,101074.00
2022-09-06T14:28:07.333Z,101066.00
2022-09-06T14:30:34.746Z,101071.00
2022-09-06T14:33:21.537Z,101069.00
2022-09-06T14:36:12.879Z,101072.00
2022-09-06T14:38:42.853Z,101068.00
2022-09-06T14:41:11.191Z,101064.00
2022-09-06T14:43:38.438Z,101060.00
2022-09-06T14:46:13.966Z,101056.00
2022-09-06T14:48:43.271Z,101045.00
2022-09-06T14:51:24.138Z,101049.00
2022-09-06T14:53:56.068Z,101041.00
2022-09-06T14:56:24.393Z,101044.00
2022-09-06T14:58:51.802Z,101042.00
2022-09-06T15:01:23.016Z,101036.00
2022-09-06T15:03:55.837Z,101041.00
2022-09-06T15:06:25.438Z,101047.00
2022-09-06T15:08:58.978Z,101039.00
2022-09-06T15:11:34.693Z,101034.00
2022-09-06T15:14:36.372Z,101035.00
2022-09-06T15:17:08.885Z,101031.00
2022-09-06T15:19:37.190Z,101034.00
2022-09-06T15:22:06.351Z,101032.00
2022-09-06T15:24:34.415Z,101035.00
2022-09-06T15:27:01.509Z,101040.00
2022-09-06T15:29:29.041Z,101038.00
2022-09-06T15:31:56.409Z,101031.00
2022-09-06T15:34:26.975Z,101036.00
2022-09-06T15:36:54.689Z,101032.00
2022-09-06T15:39:21.847Z,101023.00
2022-09-06T15:41:50.945Z,101031.00
2022-09-06T15:44:21.701Z,101030.00
2022-09-06T15:46:58.338Z,101024.00
2022-09-06T15:49:32.042Z,101024.00
2022-09-06T15:52:02.264Z,101019.00
2022-09-06T15:54:48.493Z,101020.00
2022-09-06T15:57:17.538Z,101011.00
2022-09-06T15:59:45.333Z,101016.00
2022-09-06T16:02:13.547Z,101013.00
2022-09-06T16:04:41.120Z,101013.00
2022-09-06T16:07:09.835Z,101002.00
2022-09-06T16:09:37.085Z,101007.00
2022-09-06T16:12:05.171Z,100994.00
2022-09-06T16:14:32.404Z,100991.00
2022-09-06T16:16:59.642Z,100992.00
2022-09-06T16:19:26.843Z,100992.00
2022-09-06T16:21:54.191Z,100993.00
2022-09-06T16:24:22.441Z,101000.00
2022-09-06T16:26:49.748Z,100993.00
2022-09-06T16:29:19.255Z,100992.00
2022-09-06T16:31:47.323Z,100996.00
2022-09-06T16:34:15.866Z,100993.00
2022-09-06T16:36:43.182Z,100999.00
2022-09-06T16:39:11.065Z,101004.00
2022-09-06T16:41:45.836Z,100992.00
2022-09-06T16:44:18.495Z,100988.00
2022-09-06T16:46:50.469Z,100990.00
2022-09-06T16:49:19.449Z,100988.00
2022-09-06T16:51:48.851Z,100991.00
2022-09-06T16:54:19.902Z,100988.00
2022-09-06T16:56:47.887Z,100992.00
2022-09-06T16:59:18.244Z,100995.00
2022-09-06T17:01:46.334Z,101000.00
2022-09-06T17:04:14.174Z,100999.00
2022-09-06T17:06:47.601Z,100985.00
2022-09-06T17:09:21.340Z,100999.00
2022-09-06T17:11:50.387Z,101003.00
2022-09-06T17:14:18.431Z,101003.00
2022-09-06T17:17:04.500Z,100990.00
2022-09-06T17:19:41.490Z,101004.00
2022-09-06T17:22:11.444Z,100993.00
2022-09-06T17:24:40.844Z,101006.00
2022-09-06T17:27:09.730Z,101008.00
2022-09-06T17:29:37.100Z,100998.00
2022-09-06T17:32:05.354Z,101003.00
2022-09-06T17:34:32.491Z,100998.00
2022-09-06T17:36:59.764Z,101006.00
2022-09-06T17:39:26.944Z,100994.00
2022-09-06T17:41:54.670Z,100997.00
2022-09-06T17:44:26.193Z,100993.00
2022-09-06T17:49:42.983Z,100989.00
2022-09-06T17:52:11.454Z,100990.00
2022-09-06T17:54:38.741Z,100991.00
2022-09-06T17:57:05.869Z,100988.00
2022-09-06T17:59:35.694Z,100990.00
2022-09-06T18:02:05.027Z,100989.00
2022-09-06T18:04:32.277Z,100986.00
2022-09-06T18:06:59.589Z,101000.00
2022-09-06T18:09:26.755Z,100998.00
2022-09-06T18:11:54.013Z,100990.00
2022-09-06T18:14:21.225Z,101005.00
2022-09-06T18:16:51.842Z,100993.00
2022-09-06T18:19:19.101Z,100992.00
2022-09-06T18:21:48.324Z,100988.00
2022-09-06T18:24:16.241Z,100990.00
2022-09-06T18:26:44.730Z,100986.00
2022-09-06T18:29:15.091Z,100989.00
2022-09-06T18:31:43.711Z,100981.00
2022-09-06T18:34:12.527Z,100989.00
2022-09-06T18:36:40.674Z,100985.00
2022-09-06T18:39:08.244Z,100985.00
2022-09-06T18:41:54.295Z,100981.00
2022-09-06T18:44:22.499Z,100971.00
2022-09-06T18:46:50.441Z,100978.00
2022-09-06T18:49:18.090Z,100985.00
2022-09-06T18:51:45.898Z,100984.00
2022-09-06T18:54:16.432Z,100980.00
2022-09-06T18:56:44.969Z,100991.00
2022-09-06T18:59:13.886Z,100989.00
2022-09-06T19:01:41.344Z,100984.00
2022-09-06T19:04:09.259Z,100978.00
2022-09-06T19:06:39.115Z,100972.00
2022-09-06T19:09:11.289Z,100969.00
2022-09-06T19:11:38.930Z,100961.00
2022-09-06T19:14:06.406Z,100959.00
2022-09-06T19:16:33.799Z,100964.00
2022-09-06T19:19:08.596Z,100977.00
2022-09-06T19:21:42.382Z,100971.00
2022-09-06T19:24:15.281Z,100971.00
2022-09-06T19:26:44.477Z,100973.00
2022-09-06T19:29:17.949Z,100965.00
2022-09-06T19:31:48.816Z,100958.00
2022-09-06T19:34:16.390Z,100938.00
2022-09-06T19:36:44.704Z,100949.00
2022-09-06T19:39:15.185Z,100950.00
2022-09-06T19:41:45.182Z,100937.00
2022-09-06T19:44:13.060Z,100944.00
2022-09-06T19:46:45.664Z,100936.00
2022-09-06T19:49:17.116Z,100936.00
2022-09-06T19:51:46.762Z,100938.00
2022-09-06T19:54:15.725Z,100932.00
2022-09-06T19:56:44.411Z,100924.00
2022-09-06T19:59:14.795Z,100928.00
2022-09-06T20:01:45.357Z,100927.00
2022-09-06T20:04:14.193Z,100925.00
2022-09-06T20:06:42.219Z,100937.00
2022-09-06T20:09:11.062Z,100919.00
2022-09-06T20:11:40.975Z,100913.00
2022-09-06T20:14:10.017Z,100902.00
2022-09-06T20:16:41.353Z,100914.00
2022-09-06T20:19:09.133Z,100910.00
2022-09-06T20:21:36.335Z,100908.00
2022-09-06T20:24:03.742Z,100910.00
2022-09-06T20:26:33.076Z,100907.00
2022-09-06T20:29:04.331Z,100915.00
2022-09-06T20:31:33.483Z,100911.00
2022-09-06T20:34:02.757Z,100909.00
2022-09-06T20:36:30.447Z,100908.00
2022-09-06T20:38:57.734Z,100905.00
2022-09-06T20:41:26.940Z,100895.00
2022-09-06T20:43:57.512Z,100882.00
2022-09-06T20:46:28.106Z,100879.00
2022-09-06T20:48:58.239Z,100876.00
2022-09-06T20:51:25.946Z,100874.00
2022-09-06T20:53:59.184Z,100864.00
2022-09-06T20:56:30.078Z,100860.00
2022-09-06T20:59:00.990Z,100854.00
2022-09-06T21:01:34.470Z,100846.00
2022-09-06T21:04:04.874Z,100848.00
2022-09-06T21:06:36.489Z,100837.00
2022-09-06T21:09:13.931Z,100832.00
2022-09-06T21:11:41.394Z,100825.00
2022-09-06T21:14:09.525Z,100826.00
2022-09-06T21:16:38.859Z,100832.00
2022-09-06T21:19:09.662Z,100838.00
2022-09-06T21:21:37.945Z,100846.00
2022-09-06T21:24:07.812Z,100849.00
2022-09-06T21:26:35.655Z,100844.00
2022-09-06T21:29:06.309Z,100833.00
2022-09-06T21:31:36.730Z,100847.00
2022-09-06T21:34:11.491Z,100839.00
2022-09-06T21:36:41.404Z,100846.00
2022-09-06T21:39:11.073Z,100847.00
2022-09-06T21:41:40.487Z,100861.00
2022-09-06T21:44:09.093Z,100847.00
2022-09-06T21:46:39.351Z,100836.00
2022-09-06T21:49:11.113Z,100834.00
2022-09-06T21:51:38.838Z,100832.00
2022-09-06T21:54:06.894Z,100836.00
2022-09-06T21:56:37.524Z,100845.00
2022-09-06T21:59:06.833Z,100833.00
2022-09-06T22:01:36.178Z,100818.00
2022-09-06T22:04:04.430Z,100810.00
2022-09-06T22:06:36.016Z,100800.00
2022-09-06T22:09:11.356Z,100784.00
2022-09-06T22:11:41.930Z,100775.00
2022-09-06T22:14:11.963Z,100789.00
2022-09-06T22:16:41.032Z,100795.00
2022-09-06T22:19:09.645Z,100800.00
2022-09-06T22:21:38.864Z,100809.00
2022-09-06T22:24:10.514Z,100797.00
2022-09-06T22:26:40.321Z,100786.00
2022-09-06T22:29:10.519Z,100808.00
2022-09-06T22:31:38.152Z,100795.00
2022-09-06T22:34:05.914Z,100812.00
2022-09-06T22:36:33.789Z,100809.00
2022-09-06T22:39:01.223Z,100817.00
2022-09-06T22:41:31.834Z,100824.00
2022-09-06T22:44:06.580Z,100859.00
2022-09-06T22:46:34.380Z,100894.00
2022-09-06T22:49:02.678Z,100891.00
2022-09-06T22:51:29.785Z,100914.00
2022-09-06T22:53:57.200Z,100943.00
2022-09-06T22:56:24.686Z,100969.00
2022-09-06T22:58:53.488Z,101020.00
2022-09-06T23:01:20.625Z,101035.00
2022-09-06T23:03:50.895Z,101052.00
2022-09-06T23:06:18.741Z,101055.00
2022-09-06T23:08:49.131Z,101060.00
2022-09-06T23:11:19.033Z,101053.00
2022-09-06T23:13:47.290Z,101058.00
2022-09-06T23:16:19.648Z,101054.00
2022-09-06T23:18:47.830Z,101055.00
2022-09-06T23:21:18.735Z,101037.00
2022-09-06T23:23:47.269Z,101038.00
2022-09-06T23:26:21.207Z,101039.00
2022-09-06T23:28:57.025Z,101061.00
2022-09-06T23:31:28.173Z,101051.00
2022-09-06T23:33:58.461Z,101033.00
2022-09-06T23:36:26.533Z,101040.00
2022-09-06T23:38:53.981Z,101035.00
2022-09-06T23:41:21.102Z,101026.00
2022-09-06T23:43:48.275Z,101026.00
2022-09-06T23:46:16.147Z,101008.00
2022-09-06T23:48:43.647Z,101001.00
2022-09-06T23:51:12.544Z,100993.00
2022-09-06T23:53:39.904Z,100983.00
2022-09-06T23:56:08.285Z,100972.00
2022-09-06T23:58:36.149Z,100960.00
